createdAt,value
2023-12-09T00:01:26.479Z,87.49
2023-12-09T00:06:28.256Z,87.31
2023-12-09T00:11:30.415Z,87.67
2023-12-09T00:16:32.351Z,87.21
2023-12-09T00:21:34.220Z,87.50
2023-12-09T00:26:35.940Z,87.71
2023-12-09T00:31:37.753Z,87.27
2023-12-09T00:36:39.822Z,86.84
2023-12-09T00:41:41.617Z,86.89
2023-12-09T00:46:43.390Z,87.63
2023-12-09T00:51:45.316Z,87.81
2023-12-09T00:56:47.136Z,87.29
2023-12-09T01:01:48.901Z,86.92
2023-12-09T01:06:50.744Z,86.46
2023-12-09T01:11:54.643Z,86.58
2023-12-09T01:16:56.857Z,87.10
2023-12-09T01:21:58.666Z,87.70
2023-12-09T01:27:00.401Z,87.93
2023-12-09T01:32:02.326Z,87.37
2023-12-09T01:37:04.158Z,87.51
2023-12-09T01:42:05.894Z,87.37
2023-12-09T01:47:08.348Z,87.84
2023-12-09T01:52:10.151Z,87.62
2023-12-09T01:57:12.108Z,87.68
2023-12-09T02:02:13.932Z,87.88
2023-12-09T02:07:15.749Z,87.91
2023-12-09T02:12:32.560Z,87.51
2023-12-09T02:17:41.524Z,87.65
2023-12-09T02:22:43.282Z,88.07
2023-12-09T02:27:54.490Z,88.47
2023-12-09T02:32:58.073Z,87.83
2023-12-09T02:38:02.598Z,88.19
2023-12-09T02:43:06.074Z,88.19
2023-12-09T02:48:08.190Z,87.86
2023-12-09T02:53:10.211Z,88.18
2023-12-09T02:58:13.382Z,87.86
2023-12-09T03:03:15.563Z,88.48
2023-12-09T03:08:17.362Z,88.40
2023-12-09T03:13:20.760Z,88.18
2023-12-09T03:18:22.675Z,87.73
2023-12-09T03:23:24.688Z,88.12
2023-12-09T03:28:26.601Z,87.61
2023-12-09T03:33:28.643Z,87.49
2023-12-09T03:38:30.838Z,87.36
2023-12-09T03:43:33.388Z,87.79
2023-12-09T03:48:35.316Z,87.26
2023-12-09T03:53:37.721Z,87.74
2023-12-09T03:58:39.562Z,87.74
2023-12-09T04:03:41.451Z,87.81
2023-12-09T04:08:43.532Z,87.94
2023-12-09T04:13:45.486Z,87.43
2023-12-09T04:18:48.587Z,87.49
2023-12-09T04:23:50.537Z,87.50
2023-12-09T04:28:52.294Z,87.18
2023-12-09T04:33:54.063Z,87.73
2023-12-09T04:38:56.113Z,87.52
2023-12-09T04:43:57.836Z,87.60
2023-12-09T04:48:59.763Z,87.90
2023-12-09T04:54:01.517Z,87.34
2023-12-09T04:59:04.183Z,86.86
2023-12-09T05:04:06.184Z,87.13
2023-12-09T05:09:09.575Z,87.82
2023-12-09T05:14:11.459Z,87.84
2023-12-09T05:19:13.274Z,88.17
2023-12-09T05:24:15.265Z,88.55
2023-12-09T05:29:17.075Z,87.71
2023-12-09T05:34:19.185Z,87.92
2023-12-09T05:39:21.672Z,87.27
2023-12-09T05:44:23.670Z,88.45
2023-12-09T05:49:26.488Z,87.98
2023-12-09T05:54:28.231Z,87.69
2023-12-09T05:59:30.149Z,88.20
2023-12-09T06:04:32.054Z,88.14
2023-12-09T06:09:33.981Z,90.34
2023-12-09T06:14:36.978Z,89.62
2023-12-09T06:19:39.316Z,89.71
2023-12-09T06:24:41.175Z,89.95
2023-12-09T06:29:45.769Z,89.69
2023-12-09T06:34:47.623Z,89.70
2023-12-09T06:39:49.522Z,89.61
2023-12-09T06:44:51.498Z,89.98
2023-12-09T06:49:53.437Z,90.00
2023-12-09T06:54:55.675Z,90.05
2023-12-09T06:59:57.692Z,90.42
2023-12-09T07:04:59.522Z,90.95
2023-12-09T07:10:01.429Z,90.35
2023-12-09T07:15:06.707Z,90.45
2023-12-09T07:20:08.815Z,91.52
2023-12-09T07:25:12.977Z,91.26
2023-12-09T07:30:15.226Z,91.31
2023-12-09T07:35:18.324Z,91.02
2023-12-09T07:40:20.355Z,91.19
2023-12-09T07:45:22.215Z,91.17
2023-12-09T07:50:24.377Z,91.53
2023-12-09T07:55:26.213Z,92.30
2023-12-09T08:00:28.694Z,92.18
2023-12-09T08:05:30.836Z,91.54
2023-12-09T08:10:32.714Z,91.85
2023-12-09T08:15:34.881Z,91.97
2023-12-09T08:20:37.825Z,90.93
2023-12-09T08:25:40.081Z,90.84
2023-12-09T08:30:41.890Z,91.59
2023-12-09T08:35:43.652Z,91.22
2023-12-09T08:40:45.541Z,90.86
2023-12-09T08:45:47.379Z,84.13
2023-12-09T08:50:49.349Z,87.24
2023-12-09T08:55:51.120Z,88.62
2023-12-09T09:00:53.639Z,89.67
2023-12-09T09:05:56.049Z,89.09
2023-12-09T09:10:58.236Z,89.19
2023-12-09T09:16:00.314Z,90.09
2023-12-09T09:21:02.205Z,90.15
2023-12-09T09:26:06.251Z,90.15
2023-12-09T09:31:08.198Z,89.73
2023-12-09T09:36:10.705Z,90.06
2023-12-09T09:41:37.362Z,89.88
2023-12-09T09:46:40.305Z,90.55
2023-12-09T09:51:46.132Z,91.31
2023-12-09T09:56:50.437Z,91.52
2023-12-09T10:01:52.889Z,91.22
2023-12-09T10:06:57.286Z,91.80
2023-12-09T10:11:59.314Z,91.61
2023-12-09T10:17:01.517Z,92.05
2023-12-09T10:22:03.383Z,90.94
2023-12-09T10:27:05.805Z,92.28
2023-12-09T10:32:07.856Z,91.28
2023-12-09T10:37:09.902Z,73.68
2023-12-09T10:42:12.379Z,72.03
2023-12-09T10:47:14.562Z,72.53
2023-12-09T10:52:16.452Z,70.81
2023-12-09T10:57:20.054Z,69.51
2023-12-09T11:02:22.700Z,78.66
2023-12-09T11:07:26.210Z,83.86
2023-12-09T11:12:31.266Z,85.02
2023-12-09T11:17:38.664Z,85.75
2023-12-09T11:22:42.441Z,85.68
2023-12-09T11:27:44.495Z,85.23
2023-12-09T11:32:46.757Z,84.38
2023-12-09T11:37:50.494Z,78.96
2023-12-09T11:42:53.304Z,81.03
2023-12-09T11:47:58.210Z,84.65
2023-12-09T11:53:00.309Z,86.41
2023-12-09T11:58:02.366Z,87.58
2023-12-09T12:03:04.826Z,88.81
2023-12-09T12:08:06.872Z,89.96
2023-12-09T12:13:09.294Z,88.42
2023-12-09T12:18:11.249Z,89.74
2023-12-09T12:23:19.947Z,90.07
2023-12-09T12:28:28.580Z,90.65
2023-12-09T12:33:32.547Z,90.47
2023-12-09T12:38:34.909Z,91.40
2023-12-09T12:43:36.986Z,87.40
2023-12-09T12:48:39.397Z,86.64
2023-12-09T12:53:41.428Z,88.40
2023-12-09T12:58:43.278Z,89.54
2023-12-09T13:03:45.331Z,88.74
2023-12-09T13:08:47.278Z,80.76
2023-12-09T13:13:49.251Z,89.56
2023-12-09T13:18:51.386Z,90.91
2023-12-09T13:23:53.417Z,87.43
2023-12-09T13:28:55.439Z,83.15
2023-12-09T13:33:57.459Z,78.38
2023-12-09T13:38:59.361Z,83.37
2023-12-09T13:44:02.241Z,77.04
2023-12-09T13:49:04.188Z,71.77
2023-12-09T13:54:06.119Z,71.68
2023-12-09T13:59:08.010Z,82.40
2023-12-09T14:04:10.514Z,88.22
2023-12-09T14:09:13.761Z,79.61
2023-12-09T14:14:15.810Z,87.44
2023-12-09T14:19:18.702Z,88.62
2023-12-09T14:24:22.388Z,90.54
2023-12-09T14:29:24.247Z,89.88
2023-12-09T14:34:27.233Z,90.93
2023-12-09T14:39:29.988Z,90.52
2023-12-09T14:44:33.006Z,90.79
2023-12-09T14:49:35.142Z,91.23
2023-12-09T14:54:37.042Z,91.62
2023-12-09T14:59:39.834Z,92.96
2023-12-09T15:04:41.549Z,81.23
2023-12-09T15:09:43.692Z,90.51
2023-12-09T15:14:46.003Z,79.24
2023-12-09T15:19:48.474Z,86.32
2023-12-09T15:24:50.514Z,89.31
2023-12-09T15:29:52.408Z,90.30
2023-12-09T15:34:54.395Z,91.03
2023-12-09T15:39:56.299Z,91.28
2023-12-09T15:44:58.278Z,90.23
2023-12-09T15:50:00.501Z,83.36
2023-12-09T15:55:02.257Z,90.86
2023-12-09T16:00:05.356Z,91.63
2023-12-09T16:05:07.608Z,92.35
2023-12-09T16:10:10.125Z,93.60
2023-12-09T16:15:12.935Z,93.24
2023-12-09T16:20:15.845Z,92.66
2023-12-09T16:25:17.835Z,94.82
2023-12-09T16:30:19.743Z,93.88
2023-12-09T16:35:21.719Z,94.88
2023-12-09T16:40:24.988Z,93.85
2023-12-09T16:45:27.073Z,79.97
2023-12-09T16:50:29.429Z,75.97
2023-12-09T16:55:31.252Z,81.77
2023-12-09T17:00:35.605Z,79.58
2023-12-09T17:05:37.729Z,76.61
2023-12-09T17:10:39.765Z,90.35
2023-12-09T17:15:41.784Z,80.06
2023-12-09T17:20:43.752Z,86.74
2023-12-09T17:25:45.544Z,89.04
2023-12-09T17:30:48.979Z,90.89
2023-12-09T17:35:50.814Z,92.56
2023-12-09T17:40:52.600Z,89.97
2023-12-09T17:45:55.734Z,80.74
2023-12-09T17:50:57.783Z,77.72
2023-12-09T17:55:59.634Z,76.84
2023-12-09T18:01:01.767Z,83.53
2023-12-09T18:06:04.819Z,78.52
2023-12-09T18:11:07.010Z,87.51
2023-12-09T18:16:11.594Z,88.67
2023-12-09T18:21:13.334Z,90.46
2023-12-09T18:26:15.498Z,90.11
2023-12-09T18:31:17.689Z,91.16
2023-12-09T18:36:19.552Z,92.06
2023-12-09T18:41:21.382Z,87.73
2023-12-09T18:46:25.442Z,82.25
2023-12-09T18:51:27.236Z,90.94
2023-12-09T18:56:29.133Z,91.61
2023-12-09T19:01:31.745Z,92.77
2023-12-09T19:06:42.228Z,93.06
2023-12-09T19:11:51.355Z,95.79
2023-12-09T19:16:55.243Z,94.96
2023-12-09T19:21:57.076Z,95.80
2023-12-09T19:26:59.450Z,95.79
2023-12-09T19:32:01.469Z,95.80
2023-12-09T19:37:04.215Z,95.51
2023-12-09T19:42:06.492Z,95.39
2023-12-09T19:47:08.353Z,96.72
2023-12-09T19:52:10.156Z,95.69
2023-12-09T19:57:12.010Z,96.32
2023-12-09T20:02:14.777Z,96.20
2023-12-09T20:07:17.415Z,95.96
2023-12-09T20:12:20.117Z,96.87
2023-12-09T20:17:22.205Z,96.33
2023-12-09T20:22:24.081Z,96.52
2023-12-09T20:27:25.834Z,95.98
2023-12-09T20:32:28.074Z,95.89
2023-12-09T20:37:30.209Z,96.32
2023-12-09T20:42:32.517Z,96.46
2023-12-09T20:47:35.569Z,96.87
2023-12-09T20:52:39.030Z,97.56
2023-12-09T20:57:42.127Z,97.76
2023-12-09T21:02:44.441Z,97.51
2023-12-09T21:07:46.553Z,97.10
2023-12-09T21:12:48.864Z,96.84
2023-12-09T21:17:50.660Z,96.91
2023-12-09T21:22:52.602Z,97.21
2023-12-09T21:27:54.438Z,98.08
2023-12-09T21:32:56.531Z,97.77
2023-12-09T21:37:58.332Z,97.32
2023-12-09T21:43:00.388Z,97.52
2023-12-09T21:48:04.985Z,97.38
2023-12-09T21:53:08.898Z,97.77
2023-12-09T21:58:11.506Z,97.08
2023-12-09T22:03:13.419Z,97.73
2023-12-09T22:08:15.327Z,97.30
2023-12-09T22:13:16.980Z,96.83
2023-12-09T22:18:19.862Z,97.18
2023-12-09T22:23:21.713Z,97.02
2023-12-09T22:28:23.466Z,97.27
2023-12-09T22:33:26.176Z,96.82
2023-12-09T22:38:28.354Z,97.89
2023-12-09T22:43:30.287Z,98.12
2023-12-09T22:48:32.195Z,98.17
2023-12-09T22:53:34.708Z,97.79
2023-12-09T22:58:36.811Z,97.60
2023-12-09T23:03:38.634Z,98.91
2023-12-09T23:08:40.836Z,98.14
2023-12-09T23:13:43.961Z,98.66
2023-12-09T23:18:46.151Z,98.87
2023-12-09T23:23:48.211Z,98.66
2023-12-09T23:28:50.150Z,98.34
2023-12-09T23:33:51.995Z,97.92
2023-12-09T23:38:54.231Z,97.86
2023-12-09T23:43:55.995Z,98.52
2023-12-09T23:48:58.073Z,98.81
2023-12-09T23:53:59.821Z,98.37
2023-12-09T23:59:01.771Z,98.74
